Time;durP1;ratioP1;P1;durP2;ratioP2;P2;SDS_P1;SDS_P2;PMS_P1;PMS_P2;Temp;Humidity;BMP_temperature;BMP_pressure;BME280_temperature;BME280_humidity;BME280_pressure;Samples;Min_cycle;Max_cycle;Signal;HPM_P1;HPM_P2
2023/12/03 00:02:17;;;;;;;0.83;0.73;;;1.60;99.90;;;;;;7393764;19;20527;-81
2023/12/03 00:04:44;;;;;;;1.50;1.33;;;1.60;99.90;;;;;;7393794;19;20600;-80
2023/12/03 00:07:10;;;;;;;0.70;0.70;;;1.60;99.90;;;;;;7396793;19;20130;-79
2023/12/03 00:09:37;;;;;;;0.60;0.60;;;1.60;99.90;;;;;;7395744;19;20146;-80
2023/12/03 00:12:07;;;;;;;2.37;1.63;;;1.60;99.90;;;;;;7395126;19;20602;-79
2023/12/03 00:14:34;;;;;;;0.97;0.97;;;1.70;99.90;;;;;;7395085;19;20135;-79
2023/12/03 00:16:59;;;;;;;0.87;0.80;;;1.60;99.90;;;;;;7392642;19;20474;-80
2023/12/03 00:19:25;;;;;;;2.30;1.30;;;1.70;99.90;;;;;;7396165;19;20259;-79
2023/12/03 00:21:51;;;;;;;0.70;0.70;;;1.70;99.90;;;;;;7392655;19;20144;-79
2023/12/03 00:24:17;;;;;;;0.90;0.90;;;1.60;99.90;;;;;;7394136;19;20118;-80
2023/12/03 00:26:43;;;;;;;1.13;0.63;;;1.60;99.90;;;;;;7394008;19;20694;-79
2023/12/03 00:29:10;;;;;;;1.43;0.93;;;1.50;99.90;;;;;;7394526;19;20158;-79
2023/12/03 00:31:36;;;;;;;0.93;0.90;;;1.60;99.90;;;;;;7391739;19;20158;-79
2023/12/03 00:34:03;;;;;;;1.03;0.80;;;1.70;99.90;;;;;;7395498;19;20129;-80
2023/12/03 00:36:29;;;;;;;0.73;0.73;;;1.60;99.90;;;;;;7393295;19;20151;-78
2023/12/03 00:38:55;;;;;;;1.50;1.07;;;1.70;99.90;;;;;;7394439;19;20455;-80
2023/12/03 00:41:20;;;;;;;0.90;0.90;;;1.70;99.90;;;;;;7391401;19;20138;-79
2023/12/03 00:43:46;;;;;;;0.80;0.80;;;1.50;99.90;;;;;;7393750;19;20147;-79
2023/12/03 00:46:12;;;;;;;0.77;0.60;;;1.90;99.90;;;;;;7392231;19;20166;-80
2023/12/03 00:48:39;;;;;;;1.37;1.27;;;1.70;99.90;;;;;;7392101;19;20496;-81
2023/12/03 00:51:05;;;;;;;0.80;0.80;;;1.70;99.90;;;;;;7396221;19;20145;-80
2023/12/03 00:53:31;;;;;;;1.63;1.53;;;1.70;99.90;;;;;;7395313;19;20198;-80
2023/12/03 00:55:56;;;;;;;1.33;1.00;;;1.70;99.90;;;;;;7392455;19;20610;-79
2023/12/03 00:58:22;;;;;;;1.40;1.30;;;1.70;99.90;;;;;;7392619;19;20135;-79
2023/12/03 01:00:48;;;;;;;1.73;1.63;;;1.70;99.90;;;;;;7391461;19;22011;-82
2023/12/03 01:03:14;;;;;;;0.80;0.80;;;1.60;99.90;;;;;;7392228;19;20647;-80
2023/12/03 01:05:41;;;;;;;1.27;1.17;;;1.70;99.90;;;;;;7390957;19;20503;-80
2023/12/03 01:08:06;;;;;;;0.80;0.80;;;1.90;99.90;;;;;;7392265;19;20622;-78
2023/12/03 01:10:32;;;;;;;1.40;1.30;;;1.70;99.90;;;;;;7391541;19;20206;-80
2023/12/03 01:12:59;;;;;;;1.87;1.23;;;1.70;99.90;;;;;;7391872;19;20147;-80
2023/12/03 01:15:25;;;;;;;0.80;0.80;;;1.90;99.90;;;;;;7389980;19;20208;-79
2023/12/03 01:17:51;;;;;;;0.73;0.73;;;1.80;99.90;;;;;;7394287;19;20163;-77
2023/12/03 01:20:16;;;;;;;1.30;1.00;;;2.20;99.90;;;;;;7390200;19;20127;-79
2023/12/03 01:22:42;;;;;;;0.97;0.77;;;1.80;99.90;;;;;;7391834;19;20142;-80
2023/12/03 01:25:08;;;;;;;0.97;0.90;;;1.70;99.90;;;;;;7391965;19;20210;-80
2023/12/03 01:27:34;;;;;;;1.63;1.10;;;1.80;99.90;;;;;;7392034;19;20139;-81
2023/12/03 01:29:59;;;;;;;1.07;0.97;;;1.80;99.90;;;;;;7393541;19;20134;-79
2023/12/03 01:32:25;;;;;;;1.13;0.97;;;1.70;99.90;;;;;;7392146;19;20710;-78
2023/12/03 01:34:51;;;;;;;2.17;1.07;;;1.70;99.90;;;;;;7383397;19;20236;-78
2023/12/03 01:37:18;;;;;;;1.13;1.07;;;1.70;99.90;;;;;;7390415;19;20505;-80
2023/12/03 01:39:44;;;;;;;1.73;1.33;;;1.90;99.90;;;;;;7391251;19;20148;-79
2023/12/03 01:42:10;;;;;;;0.77;0.77;;;1.70;99.90;;;;;;7393765;19;20628;-80
2023/12/03 01:44:36;;;;;;;1.10;1.00;;;1.40;99.90;;;;;;7386994;19;20166;-80
2023/12/03 01:47:03;;;;;;;2.20;1.63;;;1.50;99.90;;;;;;7392273;19;20138;-79
2023/12/03 01:49:30;;;;;;;1.77;1.23;;;1.40;99.90;;;;;;7390126;19;20192;-79
2023/12/03 01:51:57;;;;;;;1.20;0.93;;;2.30;99.90;;;;;;7391861;19;20205;-79
2023/12/03 01:54:28;;;;;;;1.10;1.00;;;1.30;99.90;;;;;;7390512;19;20150;-78
2023/12/03 01:56:54;;;;;;;2.03;1.40;;;1.70;99.90;;;;;;7393299;19;20138;-78
2023/12/03 01:59:21;;;;;;;1.40;1.23;;;1.60;99.90;;;;;;7390144;19;20210;-80
2023/12/03 02:01:47;;;;;;;1.57;1.20;;;1.70;99.90;;;;;;7391248;19;20600;-80
2023/12/03 02:04:13;;;;;;;0.93;0.93;;;1.60;99.90;;;;;;7389288;19;20163;-79
2023/12/03 02:06:38;;;;;;;1.43;1.10;;;1.60;99.90;;;;;;7390528;19;20146;-79
2023/12/03 02:09:04;;;;;;;1.17;1.07;;;1.70;99.90;;;;;;7388365;19;20197;-79
2023/12/03 02:11:30;;;;;;;0.73;0.70;;;1.50;99.90;;;;;;7389144;19;20142;-79
2023/12/03 02:13:57;;;;;;;1.90;1.73;;;1.50;99.90;;;;;;7391731;19;20151;-80
2023/12/03 02:16:23;;;;;;;1.33;1.23;;;1.60;99.90;;;;;;7389295;19;20138;-78
2023/12/03 02:18:49;;;;;;;0.70;0.70;;;1.60;99.90;;;;;;7390676;19;20159;-80
2023/12/03 02:21:14;;;;;;;1.00;0.80;;;1.90;99.90;;;;;;7389773;19;20146;-79
2023/12/03 02:23:40;;;;;;;3.30;2.10;;;1.50;99.90;;;;;;7389469;19;20134;-79
2023/12/03 02:26:06;;;;;;;0.97;0.73;;;1.60;99.90;;;;;;7389847;19;20242;-78
2023/12/03 02:28:32;;;;;;;1.30;1.20;;;2.10;99.90;;;;;;7388982;19;20168;-79
2023/12/03 02:30:58;;;;;;;1.20;1.00;;;1.60;99.90;;;;;;7390352;19;20118;-78
2023/12/03 02:33:24;;;;;;;1.70;1.00;;;1.70;99.90;;;;;;7391447;19;20146;-80
2023/12/03 02:35:49;;;;;;;0.90;0.73;;;1.80;99.90;;;;;;7389959;19;20159;-78
2023/12/03 02:38:15;;;;;;;1.00;0.90;;;1.50;99.90;;;;;;7391344;19;20545;-80
2023/12/03 02:40:41;;;;;;;1.27;1.00;;;1.50;99.90;;;;;;7391009;19;20122;-79
2023/12/03 02:43:07;;;;;;;0.90;0.90;;;1.80;99.90;;;;;;7387571;19;20178;-79
2023/12/03 02:45:33;;;;;;;0.83;0.63;;;1.10;99.90;;;;;;7390368;19;20567;-80
2023/12/03 02:47:58;;;;;;;1.93;0.87;;;1.80;99.90;;;;;;7390699;19;20142;-79
2023/12/03 02:50:24;;;;;;;2.03;1.33;;;1.60;99.90;;;;;;7390122;19;20188;-80
2023/12/03 02:52:50;;;;;;;1.87;1.30;;;1.70;99.90;;;;;;7390201;19;20246;-79
2023/12/03 02:55:17;;;;;;;1.07;0.97;;;1.70;99.90;;;;;;7390446;19;20153;-78
2023/12/03 02:57:42;;;;;;;1.90;1.73;;;1.70;99.90;;;;;;7389763;19;20150;-80
2023/12/03 03:00:09;;;;;;;0.80;0.80;;;1.70;99.90;;;;;;7385330;19;20137;-78
2023/12/03 03:02:35;;;;;;;3.77;1.73;;;1.60;99.90;;;;;;7388030;19;20166;-79
2023/12/03 03:05:01;;;;;;;1.03;1.00;;;1.70;99.90;;;;;;7388560;19;20166;-80
2023/12/03 03:07:27;;;;;;;1.00;1.00;;;1.60;99.90;;;;;;7390618;19;20135;-79
2023/12/03 03:09:53;;;;;;;1.40;1.20;;;1.60;99.90;;;;;;7390473;19;20146;-79
2023/12/03 03:12:19;;;;;;;1.33;1.10;;;1.60;99.90;;;;;;7387959;19;20145;-79
2023/12/03 03:14:44;;;;;;;0.60;0.60;;;1.50;99.90;;;;;;7389214;19;20134;-80
2023/12/03 03:17:10;;;;;;;0.87;0.77;;;1.60;99.90;;;;;;7387332;19;20143;-78
2023/12/03 03:19:36;;;;;;;0.60;0.60;;;1.60;99.90;;;;;;7389474;19;20623;-79
2023/12/03 03:22:02;;;;;;;1.23;0.90;;;1.70;99.90;;;;;;7387885;19;20143;-79
2023/12/03 03:24:28;;;;;;;0.70;0.70;;;1.70;99.90;;;;;;7392954;19;20153;-79
2023/12/03 03:26:53;;;;;;;1.43;1.10;;;1.60;99.90;;;;;;7396566;19;20670;-80
2023/12/03 03:29:19;;;;;;;2.73;1.30;;;1.60;99.90;;;;;;7395537;19;20144;-78
2023/12/03 03:31:45;;;;;;;1.13;0.77;;;2.50;99.90;;;;;;7396018;19;20148;-79
2023/12/03 03:34:11;;;;;;;0.97;0.90;;;1.70;99.90;;;;;;7396195;19;20439;-80
2023/12/03 03:36:36;;;;;;;1.33;1.23;;;1.50;99.90;;;;;;7391604;19;20134;-79
2023/12/03 03:39:02;;;;;;;0.50;0.50;;;1.40;99.90;;;;;;7395570;19;20231;-78
2023/12/03 03:41:28;;;;;;;0.73;0.73;;;1.40;99.90;;;;;;7393022;19;20591;-78
2023/12/03 03:43:54;;;;;;;1.63;1.10;;;1.50;99.90;;;;;;7393782;19;20166;-79
2023/12/03 03:46:20;;;;;;;1.33;1.23;;;1.50;99.90;;;;;;7396528;19;20142;-78
2023/12/03 03:48:46;;;;;;;0.87;0.67;;;1.50;99.90;;;;;;7396279;19;20481;-79
2023/12/03 03:51:11;;;;;;;1.30;1.20;;;1.50;99.90;;;;;;7395962;19;20148;-80
2023/12/03 03:53:37;;;;;;;1.10;1.10;;;1.60;99.90;;;;;;7397200;19;20134;-80
2023/12/03 03:56:08;;;;;;;0.43;0.43;;;1.50;99.90;;;;;;7396163;19;20622;-78
2023/12/03 03:58:35;;;;;;;1.30;1.20;;;1.50;99.90;;;;;;7397415;19;20134;-78
2023/12/03 04:01:04;;;;;;;1.30;1.17;;;2.10;99.90;;;;;;7394634;19;20150;-79
2023/12/03 04:03:30;;;;;;;2.77;1.40;;;1.50;99.90;;;;;;7394706;19;20192;-78
2023/12/03 04:05:59;;;;;;;0.93;0.90;;;1.40;99.90;;;;;;7396478;19;20183;-80
2023/12/03 04:08:24;;;;;;;0.70;0.70;;;1.40;99.90;;;;;;7394592;19;20616;-78
2023/12/03 04:10:50;;;;;;;1.33;1.23;;;1.50;99.90;;;;;;7394953;19;20155;-79
2023/12/03 04:13:16;;;;;;;1.03;1.03;;;1.60;99.90;;;;;;7396111;19;20142;-80
2023/12/03 04:15:42;;;;;;;0.67;0.63;;;1.60;99.90;;;;;;7395168;19;20127;-80
2023/12/03 04:18:07;;;;;;;1.13;0.97;;;1.50;99.90;;;;;;7392269;19;20159;-78
2023/12/03 04:20:33;;;;;;;1.17;1.13;;;2.20;99.90;;;;;;7392637;19;20458;-79
2023/12/03 04:22:59;;;;;;;1.20;0.87;;;1.40;99.90;;;;;;7390035;19;20144;-79
2023/12/03 04:25:24;;;;;;;0.70;0.70;;;1.40;99.90;;;;;;7393482;19;20134;-77
2023/12/03 04:27:50;;;;;;;1.00;0.77;;;1.70;99.90;;;;;;7392031;19;20131;-79
2023/12/03 04:30:16;;;;;;;1.53;1.43;;;1.40;99.90;;;;;;7395508;19;20824;-80
2023/12/03 04:32:41;;;;;;;2.60;1.37;;;1.10;99.90;;;;;;7393404;19;20704;-79
2023/12/03 04:35:08;;;;;;;0.93;0.93;;;2.40;99.90;;;;;;7391872;19;20142;-79
2023/12/03 04:37:35;;;;;;;1.00;0.90;;;1.30;99.90;;;;;;7392314;19;20580;-79
2023/12/03 04:40:01;;;;;;;0.73;0.73;;;1.40;99.90;;;;;;7393603;19;20135;-79
2023/12/03 04:42:28;;;;;;;1.47;1.27;;;0.70;99.90;;;;;;7389812;19;20479;-78
2023/12/03 04:44:53;;;;;;;0.73;0.70;;;1.50;99.90;;;;;;7389745;19;20158;-79
2023/12/03 04:47:19;;;;;;;2.67;1.00;;;1.40;99.90;;;;;;7392705;19;20151;-78
2023/12/03 04:49:45;;;;;;;2.10;1.23;;;1.30;99.90;;;;;;7394166;19;20457;-78
2023/12/03 04:52:10;;;;;;;1.13;1.00;;;1.70;99.90;;;;;;7391942;19;20232;-80
2023/12/03 04:54:36;;;;;;;2.00;0.63;;;1.30;99.90;;;;;;7394666;19;20134;-78
2023/12/03 04:57:02;;;;;;;2.60;1.50;;;1.30;99.90;;;;;;7392117;19;20150;-79
2023/12/03 04:59:29;;;;;;;0.97;0.90;;;1.30;99.90;;;;;;7393771;19;20624;-79
2023/12/03 05:01:55;;;;;;;0.70;0.70;;;1.30;99.90;;;;;;7391480;19;20159;-78
2023/12/03 05:04:23;;;;;;;0.80;0.77;;;1.00;99.90;;;;;;7393409;19;20134;-79
2023/12/03 05:06:50;;;;;;;1.67;1.53;;;1.40;99.90;;;;;;7390368;19;20154;-78
2023/12/03 05:09:16;;;;;;;0.67;0.60;;;1.30;99.90;;;;;;7396298;19;20137;-79
2023/12/03 05:11:44;;;;;;;1.37;1.07;;;1.40;99.90;;;;;;7392051;19;20135;-79
2023/12/03 05:14:10;;;;;;;1.33;1.03;;;1.40;99.90;;;;;;7393119;19;20147;-79
2023/12/03 05:16:36;;;;;;;2.83;1.03;;;1.30;99.90;;;;;;7391205;19;20215;-80
2023/12/03 05:19:02;;;;;;;0.87;0.87;;;1.80;99.90;;;;;;7392411;19;20456;-80
2023/12/03 05:21:28;;;;;;;0.70;0.70;;;1.80;99.90;;;;;;7392977;19;20142;-79
2023/12/03 05:23:54;;;;;;;1.27;0.90;;;1.30;99.90;;;;;;7392188;19;20598;-79
2023/12/03 05:26:20;;;;;;;1.13;1.03;;;1.30;99.90;;;;;;7390537;19;20162;-78
2023/12/03 05:28:45;;;;;;;1.30;0.97;;;1.30;99.90;;;;;;7391562;19;20460;-80
2023/12/03 05:31:11;;;;;;;0.70;0.70;;;0.20;99.90;;;;;;7390934;19;20135;-78
2023/12/03 05:33:37;;;;;;;0.80;0.73;;;1.20;99.90;;;;;;7394524;19;20669;-80
2023/12/03 05:36:04;;;;;;;1.50;1.40;;;1.20;99.90;;;;;;7388218;19;20134;-79
2023/12/03 05:38:30;;;;;;;1.23;1.13;;;1.20;99.90;;;;;;7391451;19;20281;-79
2023/12/03 05:40:57;;;;;;;0.47;0.47;;;1.20;99.90;;;;;;7389909;19;20490;-79
2023/12/03 05:43:22;;;;;;;0.80;0.80;;;1.20;99.90;;;;;;7388225;19;20205;-79
2023/12/03 05:45:48;;;;;;;1.57;1.47;;;1.10;99.90;;;;;;7390643;19;20218;-78
2023/12/03 05:48:15;;;;;;;1.23;1.13;;;1.10;99.90;;;;;;7390789;19;20135;-77
2023/12/03 05:50:41;;;;;;;0.60;0.53;;;1.10;99.90;;;;;;7390113;19;20261;-79
2023/12/03 05:53:07;;;;;;;1.27;0.93;;;1.00;99.90;;;;;;7390321;19;20157;-78
2023/12/03 05:55:33;;;;;;;0.70;0.67;;;1.00;99.90;;;;;;7392099;19;20138;-77
2023/12/03 05:57:59;;;;;;;1.30;0.73;;;1.00;99.90;;;;;;7392956;19;20141;-80
2023/12/03 06:00:24;;;;;;;1.90;1.07;;;1.00;99.90;;;;;;7391829;19;20559;-78
2023/12/03 06:02:50;;;;;;;1.07;0.97;;;1.00;99.90;;;;;;7391522;19;20135;-78
2023/12/03 06:05:16;;;;;;;3.60;1.33;;;1.10;99.90;;;;;;7388962;19;20134;-78
2023/12/03 06:07:42;;;;;;;1.43;1.33;;;1.10;99.90;;;;;;7392071;19;20138;-78
2023/12/03 06:10:08;;;;;;;1.67;1.33;;;1.00;99.90;;;;;;7391012;19;20138;-79
2023/12/03 06:12:33;;;;;;;1.30;1.20;;;0.90;99.90;;;;;;7390974;19;20165;-80
2023/12/03 06:14:59;;;;;;;1.57;1.47;;;0.80;99.90;;;;;;7388878;19;20138;-79
2023/12/03 06:17:25;;;;;;;0.70;0.70;;;0.90;99.90;;;;;;7390836;19;20201;-79
2023/12/03 06:19:51;;;;;;;1.00;0.97;;;0.90;99.90;;;;;;7391612;19;21651;-79
2023/12/03 06:22:18;;;;;;;1.47;1.37;;;0.90;99.90;;;;;;7392387;19;20142;-77
2023/12/03 06:24:43;;;;;;;0.93;0.93;;;0.90;99.90;;;;;;7387592;19;20490;-79
2023/12/03 06:27:09;;;;;;;1.43;1.20;;;0.90;99.90;;;;;;7389593;19;20119;-79
2023/12/03 06:29:35;;;;;;;1.47;1.37;;;1.40;99.90;;;;;;7390672;19;20146;-79
2023/12/03 06:32:01;;;;;;;2.67;1.60;;;0.90;99.90;;;;;;7390096;19;20137;-79
2023/12/03 06:34:27;;;;;;;0.70;0.70;;;0.90;99.90;;;;;;7388174;19;20758;-79
2023/12/03 06:36:53;;;;;;;2.47;1.70;;;0.90;99.90;;;;;;7389509;19;20126;-81
2023/12/03 06:39:18;;;;;;;1.57;1.47;;;0.90;99.90;;;;;;7390787;19;20135;-79
2023/12/03 06:41:44;;;;;;;3.50;1.30;;;0.90;99.90;;;;;;7389023;19;20150;-77
2023/12/03 06:44:10;;;;;;;0.70;0.70;;;0.80;99.90;;;;;;7385458;19;20750;-78
2023/12/03 06:46:42;;;;;;;0.70;0.70;;;0.80;99.90;;;;;;7390830;19;20137;-78
2023/12/03 06:49:10;;;;;;;1.83;1.40;;;0.80;99.90;;;;;;7385082;19;20147;-78
2023/12/03 06:51:36;;;;;;;2.03;1.50;;;0.80;99.90;;;;;;7386954;19;20182;-78
2023/12/03 06:54:03;;;;;;;0.80;0.77;;;0.80;99.90;;;;;;7387724;19;20154;-77
2023/12/03 06:56:30;;;;;;;1.87;1.77;;;2.10;99.90;;;;;;7386597;19;20141;-79
2023/12/03 06:58:55;;;;;;;1.30;1.20;;;0.70;99.90;;;;;;7388535;19;20130;-78
2023/12/03 07:01:21;;;;;;;1.37;1.27;;;0.70;99.90;;;;;;7394199;19;20110;-77
2023/12/03 07:03:47;;;;;;;1.33;0.60;;;1.40;99.90;;;;;;7391139;19;20134;-76
2023/12/03 07:06:13;;;;;;;2.10;1.40;;;0.70;99.90;;;;;;7393494;19;20134;-78
2023/12/03 07:08:38;;;;;;;1.20;1.10;;;0.60;99.90;;;;;;7392261;19;20122;-77
2023/12/03 07:11:04;;;;;;;1.20;0.83;;;0.60;99.90;;;;;;7394601;19;20645;-77
2023/12/03 07:13:30;;;;;;;1.00;0.90;;;0.60;99.90;;;;;;7391226;19;20131;-77
2023/12/03 07:15:56;;;;;;;1.77;1.43;;;0.60;99.90;;;;;;7392861;19;20141;-77
2023/12/03 07:18:22;;;;;;;1.27;1.03;;;0.60;99.90;;;;;;7392335;19;20155;-76
2023/12/03 07:20:48;;;;;;;0.63;0.63;;;0.50;99.90;;;;;;7392814;19;20189;-78
2023/12/03 07:23:14;;;;;;;1.33;1.23;;;0.50;99.90;;;;;;7390498;19;20127;-79
2023/12/03 07:25:39;;;;;;;2.17;1.23;;;0.60;99.90;;;;;;7392351;19;20130;-79
2023/12/03 07:28:05;;;;;;;1.03;0.90;;;0.60;99.90;;;;;;7392476;19;20131;-77
2023/12/03 07:30:31;;;;;;;1.77;1.30;;;1.00;99.90;;;;;;7391351;19;20162;-76
2023/12/03 07:32:56;;;;;;;1.50;1.40;;;0.60;99.90;;;;;;7390205;19;20127;-77
2023/12/03 07:35:22;;;;;;;0.73;0.70;;;0.50;99.90;;;;;;7392914;19;20139;-78
2023/12/03 07:37:48;;;;;;;0.97;0.70;;;0.50;99.90;;;;;;7388970;19;20135;-79
2023/12/03 07:40:16;;;;;;;1.47;1.37;;;0.60;99.90;;;;;;7392201;19;20142;-79
2023/12/03 07:42:42;;;;;;;1.23;0.97;;;0.70;99.90;;;;;;7389771;19;20194;-78
2023/12/03 07:45:08;;;;;;;0.97;0.97;;;0.80;99.90;;;;;;7250597;19;2823305;-78
2023/12/03 07:47:37;;;;;;;0.70;0.57;;;1.10;99.90;;;;;;7391374;19;20130;-80
2023/12/03 07:50:03;;;;;;;2.67;1.83;;;0.60;99.90;;;;;;7394645;19;20130;-78
2023/12/03 07:52:29;;;;;;;1.63;1.37;;;0.60;99.90;;;;;;7393387;19;20226;-76
2023/12/03 07:54:54;;;;;;;1.63;1.53;;;0.70;99.90;;;;;;7392199;19;20142;-78
2023/12/03 07:57:22;;;;;;;1.73;1.10;;;0.80;99.90;;;;;;7391588;19;20158;-77
2023/12/03 07:59:48;;;;;;;1.50;1.40;;;0.70;99.90;;;;;;7395160;19;20585;-76
2023/12/03 08:02:14;;;;;;;1.30;1.07;;;0.60;99.90;;;;;;7391749;19;20135;-76
2023/12/03 08:04:40;;;;;;;1.97;1.87;;;0.60;99.90;;;;;;7394513;19;20156;-77
2023/12/03 08:07:05;;;;;;;1.50;1.40;;;0.60;99.90;;;;;;7393781;19;20142;-77
2023/12/03 08:09:31;;;;;;;2.70;1.97;;;0.60;99.90;;;;;;7394564;19;20122;-78
2023/12/03 08:11:57;;;;;;;1.10;1.10;;;0.50;99.90;;;;;;7397774;19;20138;-77
2023/12/03 08:14:23;;;;;;;1.87;1.43;;;0.70;99.90;;;;;;7395570;19;20568;-76
2023/12/03 08:16:48;;;;;;;1.43;1.33;;;0.70;99.90;;;;;;7396553;19;20130;-76
2023/12/03 08:19:14;;;;;;;1.03;1.00;;;0.70;99.90;;;;;;7389855;19;20178;-76
2023/12/03 08:21:40;;;;;;;4.30;3.28;;;0.70;99.90;;;;;;7394504;19;20875;-78
2023/12/03 08:24:06;;;;;;;1.53;1.30;;;0.70;99.90;;;;;;7393344;19;20138;-77
2023/12/03 08:26:34;;;;;;;1.13;0.87;;;0.70;99.90;;;;;;7393374;19;20560;-76
2023/12/03 08:29:00;;;;;;;1.60;1.50;;;0.90;99.90;;;;;;7395158;19;20155;-79
2023/12/03 08:31:27;;;;;;;1.67;1.03;;;0.80;99.90;;;;;;7393716;19;20131;-77
2023/12/03 08:33:53;;;;;;;1.00;0.97;;;0.80;99.90;;;;;;7393738;19;20138;-78
2023/12/03 08:36:22;;;;;;;5.45;3.60;;;0.90;99.90;;;;;;7391155;19;20387;-78
2023/12/03 08:38:48;;;;;;;1.20;1.20;;;0.90;99.90;;;;;;7395172;19;20202;-79
2023/12/03 08:41:14;;;;;;;0.50;0.50;;;0.80;99.90;;;;;;7393405;19;20135;-78
2023/12/03 08:43:40;;;;;;;1.37;1.30;;;0.90;99.90;;;;;;7389291;19;20223;-78
2023/12/03 08:46:07;;;;;;;5.90;3.72;;;1.00;99.90;;;;;;7391068;19;20908;-77
2023/12/03 08:48:32;;;;;;;2.47;1.93;;;1.10;99.90;;;;;;7393318;19;20142;-77
2023/12/03 08:50:58;;;;;;;1.23;1.10;;;1.00;99.90;;;;;;7392010;19;20144;-77
2023/12/03 08:53:24;;;;;;;1.20;1.10;;;1.00;99.90;;;;;;7393857;19;20271;-76
2023/12/03 08:55:49;;;;;;;0.80;0.80;;;0.90;99.90;;;;;;7392204;19;20135;-77
2023/12/03 08:58:15;;;;;;;6.50;3.50;;;1.00;99.90;;;;;;7392069;19;20431;-77
2023/12/03 09:00:41;;;;;;;5.03;3.57;;;1.00;99.90;;;;;;7392048;19;20394;-78
2023/12/03 09:03:07;;;;;;;5.18;3.80;;;1.00;99.90;;;;;;7389625;19;20446;-79
2023/12/03 09:05:34;;;;;;;3.00;1.73;;;1.10;99.90;;;;;;7393864;19;20587;-79
2023/12/03 09:07:59;;;;;;;2.20;1.60;;;1.10;99.90;;;;;;7394776;19;20568;-78
2023/12/03 09:10:25;;;;;;;1.30;1.20;;;1.00;99.90;;;;;;7394161;19;20139;-77
2023/12/03 09:12:52;;;;;;;0.90;0.90;;;0.90;99.90;;;;;;7393297;19;20139;-77
2023/12/03 09:15:17;;;;;;;1.93;1.50;;;0.90;99.90;;;;;;7392559;19;20139;-76
2023/12/03 09:17:43;;;;;;;1.47;0.90;;;1.00;99.90;;;;;;7392712;19;20135;-79
2023/12/03 09:20:09;;;;;;;1.23;1.10;;;1.00;99.90;;;;;;7391253;19;20215;-78
2023/12/03 09:22:35;;;;;;;1.00;1.00;;;1.00;99.90;;;;;;7390655;19;20131;-76
2023/12/03 09:25:00;;;;;;;1.63;1.20;;;1.00;99.90;;;;;;7389883;19;21418;-77
2023/12/03 09:27:26;;;;;;;5.10;3.15;;;1.10;99.90;;;;;;7390793;19;20375;-80
2023/12/03 09:29:52;;;;;;;1.80;1.70;;;1.10;99.90;;;;;;7392228;19;20141;-77
2023/12/03 09:32:17;;;;;;;2.23;1.17;;;1.00;99.90;;;;;;7394095;19;20138;-78
2023/12/03 09:34:43;;;;;;;2.27;2.13;;;0.80;99.90;;;;;;7389485;19;20583;-77
2023/12/03 09:37:09;;;;;;;1.00;1.00;;;0.90;99.90;;;;;;7391914;19;20881;-78
2023/12/03 09:39:35;;;;;;;0.80;0.80;;;0.90;99.90;;;;;;7391027;19;20135;-76
2023/12/03 09:42:04;;;;;;;1.10;1.10;;;1.00;99.90;;;;;;7390953;19;20182;-77
2023/12/03 09:44:48;;;;;;;0.70;0.70;;;1.10;99.90;;;;;;7389332;19;20158;-77
2023/12/03 09:47:14;;;;;;;1.40;1.17;;;1.20;99.90;;;;;;7389530;19;20150;-76
2023/12/03 09:49:44;;;;;;;2.17;1.33;;;1.20;99.90;;;;;;7389100;19;20134;-77
2023/12/03 09:52:11;;;;;;;4.23;1.67;;;1.20;99.90;;;;;;7392198;19;20158;-77
2023/12/03 09:54:38;;;;;;;1.37;0.90;;;1.00;99.90;;;;;;7389967;19;20155;-79
2023/12/03 09:57:12;;;;;;;1.33;1.27;;;1.10;99.90;;;;;;7387862;19;20599;-80
2023/12/03 09:59:42;;;;;;;1.17;1.07;;;1.30;99.90;;;;;;7391321;19;20127;-78
2023/12/03 10:02:12;;;;;;;1.47;1.37;;;1.40;99.90;;;;;;7386218;19;20151;-78
2023/12/03 10:04:38;;;;;;;1.30;1.20;;;1.20;99.90;;;;;;7390408;19;20161;-78
2023/12/03 10:07:06;;;;;;;1.80;1.70;;;1.40;99.90;;;;;;7391881;19;20222;-76
2023/12/03 10:09:32;;;;;;;1.60;1.50;;;1.50;99.90;;;;;;7393497;19;20131;-80
2023/12/03 10:12:04;;;;;;;2.03;1.83;;;1.60;99.90;;;;;;7392093;19;20134;-76
2023/12/03 10:14:30;;;;;;;1.50;1.00;;;1.50;99.90;;;;;;7391056;19;20138;-78
2023/12/03 10:16:55;;;;;;;1.53;1.00;;;1.40;99.90;;;;;;7389013;19;20143;-78
2023/12/03 10:19:26;;;;;;;1.33;1.23;;;1.60;99.90;;;;;;7391204;19;20482;-77
2023/12/03 10:21:55;;;;;;;1.67;1.40;;;1.60;99.90;;;;;;7390614;19;20214;-78
2023/12/03 10:24:21;;;;;;;2.00;1.80;;;1.50;99.90;;;;;;7391865;19;20587;-77
2023/12/03 10:26:56;;;;;;;0.97;0.97;;;1.70;99.90;;;;;;7390541;19;20226;-77
2023/12/03 10:29:25;;;;;;;1.63;1.27;;;1.80;99.90;;;;;;7389069;19;20162;-83
2023/12/03 10:31:51;;;;;;;2.10;1.60;;;2.00;99.90;;;;;;7393057;19;20127;-81
2023/12/03 10:34:20;;;;;;;1.63;1.40;;;2.00;99.90;;;;;;7389468;19;20158;-80
2023/12/03 10:36:49;;;;;;;1.37;1.30;;;2.80;99.90;;;;;;7390389;19;20493;-79
2023/12/03 10:39:19;;;;;;;1.57;1.47;;;2.10;99.90;;;;;;7384810;19;20131;-80
2023/12/03 10:41:46;;;;;;;2.47;1.67;;;2.20;99.90;;;;;;7389977;19;20230;-79
2023/12/03 10:44:19;;;;;;;4.07;1.80;;;2.20;99.90;;;;;;7389175;19;20284;-79
2023/12/03 10:46:45;;;;;;;1.53;1.40;;;2.20;99.90;;;;;;7389266;19;20135;-78
2023/12/03 10:49:12;;;;;;;0.97;0.93;;;2.20;99.90;;;;;;7387905;19;20127;-80
2023/12/03 10:51:43;;;;;;;1.80;1.60;;;2.30;99.90;;;;;;7390643;19;20119;-78
2023/12/03 10:54:10;;;;;;;3.33;1.40;;;2.50;99.90;;;;;;7390485;19;20151;-82
2023/12/03 10:56:36;;;;;;;1.07;0.90;;;2.50;99.90;;;;;;7390824;19;20127;-73
2023/12/03 10:59:04;;;;;;;2.07;1.30;;;2.60;99.90;;;;;;7389661;19;20140;-75
2023/12/03 11:01:31;;;;;;;2.23;2.03;;;2.50;99.90;;;;;;7391349;19;20496;-75
2023/12/03 11:04:23;;;;;;;2.57;1.80;;;2.60;99.90;;;;;;7387335;19;20142;-75
2023/12/03 11:06:49;;;;;;;1.40;1.30;;;2.70;99.90;;;;;;7391829;19;20240;-77
2023/12/03 11:09:16;;;;;;;1.97;1.33;;;2.70;99.90;;;;;;7389974;19;20137;-76
2023/12/03 11:11:42;;;;;;;0.73;0.73;;;2.80;99.90;;;;;;7390891;19;20138;-77
2023/12/03 11:14:07;;;;;;;1.43;0.97;;;2.80;99.90;;;;;;7391086;19;20151;-78
2023/12/03 11:16:44;;;;;;;1.97;1.87;;;2.80;99.90;;;;;;7389417;19;20577;-77
2023/12/03 11:19:17;;;;;;;0.77;0.77;;;2.90;99.90;;;;;;7391361;19;20628;-77
2023/12/03 11:22:04;;;;;;;1.63;1.50;;;2.90;99.90;;;;;;7390865;19;20482;-77
2023/12/03 11:25:08;;;;;;;1.27;0.80;;;3.00;99.90;;;;;;7391413;19;20126;-78
2023/12/03 11:27:33;;;;;;;1.10;1.00;;;2.90;99.90;;;;;;7390148;19;20199;-78
2023/12/03 11:30:04;;;;;;;0.90;0.90;;;2.90;99.90;;;;;;7395165;19;20251;-76
2023/12/03 11:32:30;;;;;;;3.70;2.23;;;3.10;99.90;;;;;;7392059;19;20154;-75
2023/12/03 11:34:59;;;;;;;1.77;1.67;;;3.20;99.90;;;;;;7390309;19;20478;-76
2023/12/03 11:37:29;;;;;;;3.13;1.50;;;3.20;99.90;;;;;;7388489;19;20475;-77
2023/12/03 11:39:58;;;;;;;1.40;1.30;;;3.20;99.90;;;;;;7389048;19;20142;-77
2023/12/03 11:42:25;;;;;;;1.57;1.47;;;3.20;99.90;;;;;;7389362;19;20585;-78
2023/12/03 11:45:15;;;;;;;1.43;0.97;;;3.30;99.90;;;;;;7390594;19;20158;-77
2023/12/03 11:47:45;;;;;;;1.33;1.20;;;3.40;99.90;;;;;;7396192;19;20596;-77
2023/12/03 11:50:14;;;;;;;2.00;1.53;;;3.30;99.90;;;;;;7396701;19;20127;-77
2023/12/03 11:52:41;;;;;;;3.10;2.00;;;3.40;99.90;;;;;;7395568;19;20228;-77
2023/12/03 11:55:12;;;;;;;2.33;1.97;;;3.40;99.90;;;;;;7395000;19;20129;-77
2023/12/03 11:57:40;;;;;;;2.27;1.87;;;3.40;99.90;;;;;;7397399;19;20161;-75
2023/12/03 12:00:08;;;;;;;1.50;1.13;;;3.60;99.90;;;;;;7395574;19;20142;-76
2023/12/03 12:02:34;;;;;;;1.47;0.93;;;3.60;99.90;;;;;;7394242;19;20131;-77
2023/12/03 12:05:04;;;;;;;1.93;1.40;;;3.80;99.90;;;;;;7397411;19;20659;-78
2023/12/03 12:07:29;;;;;;;2.47;1.73;;;3.90;99.90;;;;;;7395546;19;20159;-78
2023/12/03 12:09:55;;;;;;;2.47;1.20;;;3.90;99.90;;;;;;7397763;19;20201;-77
2023/12/03 12:12:22;;;;;;;2.10;1.37;;;4.00;99.90;;;;;;7394321;19;20135;-76
2023/12/03 12:14:49;;;;;;;2.03;1.73;;;3.90;99.90;;;;;;7397057;19;20475;-76
2023/12/03 12:17:15;;;;;;;1.20;1.10;;;4.10;99.90;;;;;;7397387;19;20138;-78
2023/12/03 12:19:47;;;;;;;2.07;1.67;;;4.20;99.90;;;;;;7391998;19;20135;-75
2023/12/03 12:22:16;;;;;;;1.67;1.57;;;4.20;99.90;;;;;;7395344;19;20756;-79
2023/12/03 12:24:44;;;;;;;2.10;1.67;;;4.30;99.90;;;;;;7394370;19;20138;-78
2023/12/03 12:27:10;;;;;;;1.80;1.70;;;4.30;99.90;;;;;;7397679;19;20130;-78
2023/12/03 12:29:36;;;;;;;1.63;1.00;;;4.30;99.90;;;;;;7392964;19;20170;-79
2023/12/03 12:32:02;;;;;;;1.50;1.40;;;4.40;99.90;;;;;;7396402;19;20138;-78
2023/12/03 12:34:29;;;;;;;2.33;1.83;;;4.50;99.90;;;;;;7394266;19;20150;-79
2023/12/03 12:37:05;;;;;;;1.60;1.27;;;4.50;99.90;;;;;;7395471;19;20151;-76
2023/12/03 12:39:32;;;;;;;1.83;1.70;;;4.40;99.90;;;;;;7395194;19;20678;-77
2023/12/03 12:41:58;;;;;;;1.43;1.33;;;4.30;99.90;;;;;;7394231;19;20147;-78
2023/12/03 12:44:41;;;;;;;0.93;0.80;;;4.20;99.90;;;;;;7389374;19;20203;-77
2023/12/03 12:47:07;;;;;;;2.30;1.50;;;4.30;99.90;;;;;;7390120;19;20207;-78
2023/12/03 12:49:33;;;;;;;1.83;1.33;;;4.40;99.90;;;;;;7394645;19;20182;-79
2023/12/03 12:52:15;;;;;;;1.77;1.33;;;4.50;99.90;;;;;;7393149;19;20592;-79
2023/12/03 12:54:48;;;;;;;1.20;1.10;;;4.50;99.90;;;;;;7393277;19;20240;-79
2023/12/03 12:57:16;;;;;;;1.53;1.43;;;4.60;99.90;;;;;;7390662;19;20146;-78